createdAt,value
2019-03-18T00:01:33.320Z,2.17
2019-03-18T00:04:41.080Z,2.22
2019-03-18T00:07:48.891Z,2.21
2019-03-18T00:10:57.003Z,2.45
2019-03-18T00:14:05.243Z,2.30
2019-03-18T00:17:13.297Z,2.14
2019-03-18T00:20:21.052Z,2.29
2019-03-18T00:23:28.315Z,2.38
2019-03-18T00:26:36.357Z,2.17
2019-03-18T00:29:44.631Z,2.29
2019-03-18T00:32:52.659Z,2.35
2019-03-18T00:36:00.616Z,2.44
2019-03-18T00:39:08.193Z,2.36
2019-03-18T00:42:16.415Z,2.31
2019-03-18T00:45:23.868Z,2.43
2019-03-18T00:48:31.546Z,2.39
2019-03-18T00:51:39.312Z,2.44
2019-03-18T00:54:47.328Z,2.34
2019-03-18T00:57:54.642Z,2.38
2019-03-18T01:01:02.495Z,2.39
2019-03-18T01:04:10.759Z,2.26
2019-03-18T01:07:18.382Z,2.38
2019-03-18T01:10:25.877Z,2.34
2019-03-18T01:13:33.844Z,2.41
2019-03-18T01:16:41.781Z,2.38
2019-03-18T01:19:49.505Z,2.41
2019-03-18T01:22:57.440Z,2.47
2019-03-18T01:26:06.363Z,2.40
2019-03-18T01:29:14.295Z,2.43
2019-03-18T01:32:23.107Z,2.30
2019-03-18T01:35:30.781Z,2.14
2019-03-18T01:38:38.461Z,2.34
2019-03-18T01:41:46.089Z,2.20
2019-03-18T01:44:54.314Z,2.22
2019-03-18T01:48:02.601Z,2.28
2019-03-18T01:51:11.111Z,2.28
2019-03-18T01:54:18.760Z,2.27
2019-03-18T01:57:27.253Z,2.12
2019-03-18T02:00:35.526Z,2.06
2019-03-18T02:03:43.283Z,2.12
2019-03-18T02:06:50.861Z,2.10
2019-03-18T02:09:58.426Z,2.19
2019-03-18T02:13:05.659Z,2.20
2019-03-18T02:16:12.910Z,2.17
2019-03-18T02:19:20.566Z,2.15
2019-03-18T02:22:27.718Z,2.13
2019-03-18T02:25:35.509Z,2.14
2019-03-18T02:28:43.404Z,2.16
2019-03-18T02:31:50.900Z,2.08
2019-03-18T02:35:00.964Z,2.04
2019-03-18T02:38:08.992Z,2.07
2019-03-18T02:41:16.770Z,2.24
2019-03-18T02:44:24.737Z,2.09
2019-03-18T02:47:32.257Z,2.05
2019-03-18T02:50:40.116Z,1.96
2019-03-18T02:53:48.531Z,2.00
2019-03-18T02:56:56.208Z,2.19
2019-03-18T03:00:07.792Z,2.19
2019-03-18T03:03:15.786Z,2.06
2019-03-18T03:06:23.495Z,2.10
2019-03-18T03:09:31.968Z,2.12
2019-03-18T03:12:40.868Z,2.30
2019-03-18T03:15:49.210Z,2.15
2019-03-18T03:18:57.099Z,2.23
2019-03-18T03:22:04.481Z,2.24
2019-03-18T03:25:12.513Z,2.25
2019-03-18T03:28:20.699Z,2.11
2019-03-18T03:31:28.002Z,2.29
2019-03-18T03:34:36.097Z,2.08
2019-03-18T03:37:44.008Z,2.22
2019-03-18T03:40:52.160Z,2.02
2019-03-18T03:44:00.269Z,1.98
2019-03-18T03:47:07.997Z,2.08
2019-03-18T03:50:15.882Z,1.96
2019-03-18T03:53:24.576Z,2.03
2019-03-18T03:56:32.899Z,1.92
2019-03-18T03:59:41.332Z,2.12
2019-03-18T04:02:49.301Z,1.98
2019-03-18T04:05:57.193Z,2.13
2019-03-18T04:09:06.550Z,2.18
2019-03-18T04:12:15.301Z,1.90
2019-03-18T04:15:23.126Z,2.29
2019-03-18T04:18:31.265Z,1.94
2019-03-18T04:21:39.471Z,2.01
2019-03-18T04:24:47.328Z,1.91
2019-03-18T04:27:56.007Z,2.08
2019-03-18T04:31:03.556Z,1.84
2019-03-18T04:34:11.822Z,1.88
2019-03-18T04:37:20.439Z,1.89
2019-03-18T04:40:28.756Z,1.96
2019-03-18T04:43:36.555Z,2.10
2019-03-18T04:46:45.277Z,1.94
2019-03-18T04:49:53.507Z,2.16
2019-03-18T04:53:01.922Z,1.92
2019-03-18T04:56:09.923Z,2.00
2019-03-18T04:59:17.625Z,1.99
2019-03-18T05:02:28.704Z,2.23
2019-03-18T05:05:36.926Z,2.13
2019-03-18T05:08:44.741Z,1.84
2019-03-18T05:11:53.221Z,1.78
2019-03-18T05:15:01.303Z,2.01
2019-03-18T05:18:09.015Z,1.97
2019-03-18T05:21:16.549Z,1.88
2019-03-18T05:24:24.544Z,1.93
2019-03-18T05:27:32.314Z,1.90
2019-03-18T05:30:39.628Z,2.29
2019-03-18T05:33:47.147Z,2.26
2019-03-18T05:36:54.859Z,2.08
2019-03-18T05:40:02.638Z,1.96
2019-03-18T05:43:10.511Z,2.09
2019-03-18T05:46:17.953Z,2.01
2019-03-18T05:49:25.237Z,2.01
2019-03-18T05:52:33.085Z,2.06
2019-03-18T05:55:40.675Z,2.09
2019-03-18T05:58:47.944Z,2.19
2019-03-18T06:01:55.330Z,2.26
2019-03-18T06:05:03.437Z,2.34
2019-03-18T06:08:11.755Z,2.18
2019-03-18T06:11:19.373Z,2.13
2019-03-18T06:14:26.771Z,2.14
2019-03-18T06:17:35.643Z,2.18
2019-03-18T06:20:43.534Z,2.15
2019-03-18T06:23:51.200Z,2.21
2019-03-18T06:26:59.287Z,2.41
2019-03-18T06:30:08.266Z,2.55
2019-03-18T06:33:16.318Z,2.45
2019-03-18T06:36:24.377Z,2.26
2019-03-18T06:39:32.911Z,2.36
2019-03-18T06:42:40.766Z,2.30
2019-03-18T06:45:48.777Z,2.71
2019-03-18T06:48:56.595Z,2.70
2019-03-18T06:52:05.613Z,2.70
2019-03-18T06:55:13.121Z,2.84
2019-03-18T06:58:21.362Z,2.97
2019-03-18T07:01:29.482Z,3.07
2019-03-18T07:04:37.488Z,3.08
2019-03-18T07:07:45.851Z,3.03
2019-03-18T07:10:53.989Z,2.90
2019-03-18T07:14:02.421Z,2.84
2019-03-18T07:17:10.597Z,3.00
2019-03-18T07:20:18.915Z,2.87
2019-03-18T07:23:26.742Z,3.05
2019-03-18T07:26:35.914Z,3.06
2019-03-18T07:29:44.304Z,3.05
2019-03-18T07:32:52.118Z,3.31
2019-03-18T07:36:00.749Z,3.42
2019-03-18T07:39:08.278Z,3.53
2019-03-18T07:42:16.219Z,3.55
2019-03-18T07:45:24.435Z,3.75
2019-03-18T07:48:33.084Z,3.75
2019-03-18T07:51:40.639Z,3.79
2019-03-18T07:54:48.829Z,3.94
2019-03-18T07:57:56.960Z,3.92
2019-03-18T08:01:04.362Z,3.99
2019-03-18T08:04:12.419Z,3.78
2019-03-18T08:07:20.709Z,3.94
2019-03-18T08:10:28.393Z,3.82
2019-03-18T08:13:36.846Z,3.94
2019-03-18T08:16:44.735Z,3.81
2019-03-18T08:19:53.553Z,3.66
2019-03-18T08:23:01.529Z,3.18
2019-03-18T08:26:09.157Z,3.11
2019-03-18T08:29:16.958Z,3.02
2019-03-18T08:32:25.062Z,3.00
2019-03-18T08:35:32.958Z,2.96
2019-03-18T08:38:40.931Z,2.93
2019-03-18T08:41:49.283Z,2.87
2019-03-18T08:44:57.688Z,2.98
2019-03-18T08:48:05.104Z,2.96
2019-03-18T08:51:13.972Z,2.81
2019-03-18T08:54:21.793Z,3.10
2019-03-18T08:57:29.733Z,3.16
2019-03-18T09:00:37.128Z,3.59
2019-03-18T09:03:44.925Z,3.93
2019-03-18T09:06:52.944Z,4.25
2019-03-18T09:10:01.019Z,4.38
2019-03-18T09:13:08.933Z,4.51
2019-03-18T09:16:17.301Z,4.66
2019-03-18T09:19:25.045Z,4.65
2019-03-18T09:22:33.296Z,4.56
2019-03-18T09:25:41.179Z,4.55
2019-03-18T09:28:49.077Z,4.69
2019-03-18T09:31:57.929Z,4.77
2019-03-18T09:35:06.524Z,4.84
2019-03-18T09:38:13.703Z,4.97
2019-03-18T09:41:21.423Z,5.20
2019-03-18T09:44:28.952Z,5.00
2019-03-18T09:47:36.757Z,4.89
2019-03-18T09:50:44.964Z,4.80
2019-03-18T09:53:52.356Z,4.98
2019-03-18T09:56:59.976Z,5.02
2019-03-18T10:00:08.047Z,5.43
2019-03-18T10:03:15.526Z,5.60
2019-03-18T10:06:23.208Z,6.15
2019-03-18T10:09:31.159Z,6.43
2019-03-18T10:12:38.665Z,7.00
2019-03-18T10:15:46.875Z,7.33
2019-03-18T10:18:54.360Z,7.14
2019-03-18T10:22:01.771Z,6.00
2019-03-18T10:25:09.262Z,6.19
2019-03-18T10:28:16.787Z,6.11
2019-03-18T10:31:24.598Z,6.60
2019-03-18T10:34:32.140Z,7.18
2019-03-18T10:37:39.849Z,7.22
2019-03-18T10:40:48.487Z,6.99
2019-03-18T10:43:56.393Z,7.16
2019-03-18T10:47:03.883Z,6.76
2019-03-18T10:50:11.892Z,7.13
2019-03-18T10:53:19.999Z,7.68
2019-03-18T10:56:27.579Z,7.86
2019-03-18T10:59:35.516Z,7.30
2019-03-18T11:02:45.045Z,6.70
2019-03-18T11:05:53.362Z,5.95
2019-03-18T11:09:00.742Z,5.31
2019-03-18T11:12:08.611Z,5.26
2019-03-18T11:15:17.167Z,5.74
2019-03-18T11:18:25.045Z,6.23
2019-03-18T11:21:33.703Z,6.53
2019-03-18T11:24:41.806Z,7.34
2019-03-18T11:27:49.832Z,7.66
2019-03-18T11:30:58.246Z,7.38
2019-03-18T11:34:05.963Z,7.61
2019-03-18T11:37:13.730Z,7.61
2019-03-18T11:40:21.995Z,7.63
2019-03-18T11:43:29.995Z,7.27
2019-03-18T11:46:40.249Z,6.72
2019-03-18T11:49:47.786Z,6.48
2019-03-18T11:52:55.979Z,6.48
2019-03-18T11:56:04.269Z,6.51
2019-03-18T11:59:12.189Z,6.23
2019-03-18T12:02:27.682Z,5.85
2019-03-18T12:05:29.791Z,5.25
2019-03-18T12:08:37.840Z,4.89
2019-03-18T12:11:45.961Z,4.89
2019-03-18T12:14:53.199Z,5.50
2019-03-18T12:18:01.313Z,5.68
2019-03-18T12:21:09.280Z,5.40
2019-03-18T12:24:17.739Z,5.22
2019-03-18T12:27:25.397Z,5.15
2019-03-18T12:30:33.970Z,5.20
2019-03-18T12:33:42.047Z,5.89
2019-03-18T12:36:49.736Z,6.09
2019-03-18T12:39:58.212Z,6.36
2019-03-18T12:43:06.205Z,6.71
2019-03-18T12:46:14.139Z,6.35
2019-03-18T12:49:21.600Z,5.99
2019-03-18T12:52:29.882Z,6.35
2019-03-18T12:55:37.435Z,6.48
2019-03-18T12:58:44.993Z,6.32
2019-03-18T13:01:52.236Z,7.24
2019-03-18T13:04:59.668Z,7.48
2019-03-18T13:08:07.220Z,7.74
2019-03-18T13:11:15.333Z,8.20
2019-03-18T13:14:23.049Z,8.63
2019-03-18T13:20:46.032Z,8.05
2019-03-18T13:23:54.013Z,8.02
2019-03-18T13:27:01.817Z,7.55
2019-03-18T13:30:15.304Z,7.29
2019-03-18T13:33:22.406Z,6.58
2019-03-18T13:36:29.913Z,6.72
2019-03-18T13:39:37.613Z,6.89
2019-03-18T13:42:45.407Z,6.90
2019-03-18T13:45:55.506Z,6.41
2019-03-18T13:49:02.868Z,6.14
2019-03-18T13:52:11.276Z,6.05
2019-03-18T13:55:19.520Z,5.91
2019-03-18T13:58:27.339Z,5.74
2019-03-18T14:01:35.026Z,6.01
2019-03-18T14:04:42.657Z,6.05
2019-03-18T14:08:00.344Z,6.30
2019-03-18T14:11:00.687Z,5.94
2019-03-18T14:14:08.679Z,5.58
2019-03-18T14:17:17.600Z,5.29
2019-03-18T14:20:28.644Z,5.18
2019-03-18T14:23:37.153Z,4.71
2019-03-18T14:26:44.995Z,4.63
2019-03-18T14:29:53.323Z,4.49
2019-03-18T14:33:01.174Z,4.61
2019-03-18T14:36:09.669Z,4.58
2019-03-18T14:39:26.071Z,4.49
2019-03-18T14:42:33.770Z,4.25
2019-03-18T14:45:42.150Z,4.58
2019-03-18T14:48:50.313Z,4.76
2019-03-18T14:51:58.091Z,4.92
2019-03-18T14:55:06.168Z,5.06
2019-03-18T14:58:13.661Z,5.37
2019-03-18T15:01:21.173Z,5.70
2019-03-18T15:04:29.013Z,6.22
2019-03-18T15:07:36.772Z,6.40
2019-03-18T15:10:44.510Z,7.05
2019-03-18T15:13:52.289Z,7.24
2019-03-18T15:17:01.008Z,7.31
2019-03-18T15:20:08.798Z,7.05
2019-03-18T15:23:16.712Z,6.80
2019-03-18T15:26:26.988Z,6.54
2019-03-18T15:29:34.611Z,6.29
2019-03-18T15:32:42.194Z,6.45
2019-03-18T15:35:52.048Z,6.33
2019-03-18T15:39:00.380Z,6.31
2019-03-18T15:42:08.268Z,6.17
2019-03-18T15:45:16.344Z,6.17
2019-03-18T15:48:24.050Z,6.00
2019-03-18T15:51:32.062Z,5.81
2019-03-18T15:54:39.462Z,5.76
2019-03-18T15:57:47.771Z,5.63
2019-03-18T16:00:55.854Z,4.86
2019-03-18T16:04:03.629Z,4.05
2019-03-18T16:07:11.629Z,3.81
2019-03-18T16:10:19.788Z,3.21
2019-03-18T16:13:27.217Z,2.98
2019-03-18T16:16:35.127Z,2.87
2019-03-18T16:19:43.519Z,2.71
2019-03-18T16:22:51.849Z,2.43
2019-03-18T16:25:59.398Z,2.36
2019-03-18T16:29:07.559Z,2.50
2019-03-18T16:32:15.119Z,2.61
2019-03-18T16:35:23.622Z,2.78
2019-03-18T16:38:31.516Z,2.62
2019-03-18T16:41:38.904Z,2.72
2019-03-18T16:44:46.395Z,2.65
2019-03-18T16:47:54.963Z,2.84
2019-03-18T16:51:02.709Z,2.65
2019-03-18T16:54:11.141Z,2.77
2019-03-18T16:57:19.481Z,2.59
2019-03-18T17:00:27.545Z,2.57
2019-03-18T17:03:37.888Z,2.38
2019-03-18T17:06:46.605Z,2.08
2019-03-18T17:09:54.800Z,1.95
2019-03-18T17:13:02.838Z,1.98
2019-03-18T17:16:10.851Z,1.92
2019-03-18T17:19:18.627Z,2.03
2019-03-18T17:22:26.392Z,1.95
2019-03-18T17:25:35.751Z,2.07
2019-03-18T17:28:43.327Z,2.11
2019-03-18T17:31:51.188Z,1.95
2019-03-18T17:34:59.388Z,1.99
2019-03-18T17:38:07.217Z,1.99
2019-03-18T17:41:14.939Z,1.88
2019-03-18T17:44:22.486Z,1.68
2019-03-18T17:47:31.356Z,1.48
2019-03-18T17:50:39.726Z,1.34
2019-03-18T17:53:47.796Z,1.32
2019-03-18T17:57:06.794Z,1.34
2019-03-18T18:00:07.426Z,1.69
2019-03-18T18:03:15.595Z,1.89
2019-03-18T18:06:23.950Z,1.69
2019-03-18T18:09:32.663Z,1.53
2019-03-18T18:12:42.257Z,1.48
2019-03-18T18:15:50.155Z,1.54
2019-03-18T18:18:58.227Z,1.49
2019-03-18T18:22:05.780Z,1.26
2019-03-18T18:25:13.553Z,1.34
2019-03-18T18:28:21.313Z,1.42
2019-03-18T18:31:29.319Z,1.32
2019-03-18T18:34:37.096Z,1.26
2019-03-18T18:37:45.011Z,1.07
2019-03-18T18:40:53.189Z,1.22
2019-03-18T18:44:01.396Z,0.89
2019-03-18T18:47:09.432Z,0.90
2019-03-18T18:50:17.669Z,1.02
2019-03-18T18:53:26.921Z,1.04
2019-03-18T18:56:35.485Z,1.01
2019-03-18T18:59:44.042Z,0.95
2019-03-18T19:02:52.192Z,1.07
2019-03-18T19:05:59.875Z,1.04
2019-03-18T19:09:08.167Z,0.90
2019-03-18T19:12:16.245Z,0.89
2019-03-18T19:15:24.147Z,1.24
2019-03-18T19:18:37.688Z,1.27
2019-03-18T19:21:42.946Z,1.06
2019-03-18T19:24:50.349Z,0.90
2019-03-18T19:27:57.899Z,1.07
2019-03-18T19:31:05.705Z,1.02
2019-03-18T19:34:13.553Z,1.31
2019-03-18T19:37:21.867Z,1.29
2019-03-18T19:40:29.291Z,1.18
2019-03-18T19:43:37.071Z,1.45
2019-03-18T19:46:44.737Z,1.54
2019-03-18T19:49:52.624Z,1.65
2019-03-18T19:53:00.333Z,1.73
2019-03-18T19:56:09.407Z,1.54
2019-03-18T19:59:17.501Z,1.64
2019-03-18T20:02:24.832Z,1.82
2019-03-18T20:05:32.687Z,1.88
2019-03-18T20:08:40.649Z,2.14
2019-03-18T20:11:49.010Z,2.07
2019-03-18T20:14:57.651Z,2.04
2019-03-18T20:18:06.027Z,2.15
2019-03-18T20:21:14.284Z,2.29
2019-03-18T20:24:22.359Z,2.16
2019-03-18T20:27:30.522Z,2.06
2019-03-18T20:30:38.285Z,2.25
2019-03-18T20:33:45.737Z,2.13
2019-03-18T20:36:54.490Z,1.96
2019-03-18T20:40:04.005Z,2.05
2019-03-18T20:43:12.007Z,1.89
2019-03-18T20:46:19.758Z,1.95
2019-03-18T20:49:27.859Z,2.02
2019-03-18T20:52:36.311Z,1.89
2019-03-18T20:55:43.915Z,1.73
2019-03-18T20:58:51.575Z,1.71
2019-03-18T21:01:59.341Z,1.77
2019-03-18T21:05:07.792Z,1.75
2019-03-18T21:08:15.927Z,1.62
2019-03-18T21:11:24.269Z,1.88
2019-03-18T21:14:31.922Z,1.78
2019-03-18T21:17:40.177Z,2.07
2019-03-18T21:20:54.476Z,1.98
2019-03-18T21:24:02.727Z,1.83
2019-03-18T21:27:11.031Z,1.89
2019-03-18T21:30:18.689Z,1.87
2019-03-18T21:33:27.378Z,1.76
2019-03-18T21:36:38.172Z,1.89
2019-03-18T21:39:45.896Z,2.16
2019-03-18T21:42:53.767Z,1.84
2019-03-18T21:46:01.431Z,2.14
2019-03-18T21:49:09.598Z,2.00
2019-03-18T21:52:17.233Z,2.11
2019-03-18T21:55:25.558Z,1.95
2019-03-18T21:58:33.516Z,2.13
2019-03-18T22:01:41.628Z,1.90
2019-03-18T22:04:49.984Z,1.97
2019-03-18T22:07:57.628Z,1.84
2019-03-18T22:11:05.043Z,1.89
2019-03-18T22:14:13.493Z,1.82
2019-03-18T22:17:22.107Z,1.66
2019-03-18T22:20:29.921Z,1.71
2019-03-18T22:23:37.784Z,1.48
2019-03-18T22:26:45.927Z,1.24
2019-03-18T22:29:54.044Z,1.23
2019-03-18T22:33:01.586Z,1.10
2019-03-18T22:36:09.890Z,1.00
2019-03-18T22:39:17.636Z,0.99
2019-03-18T22:42:25.214Z,0.96
2019-03-18T22:45:33.178Z,1.00
2019-03-18T22:48:41.032Z,1.00
2019-03-18T22:51:48.777Z,1.30
2019-03-18T22:54:56.667Z,1.05
2019-03-18T22:58:04.197Z,0.87
2019-03-18T23:01:14.723Z,1.00
2019-03-18T23:04:22.230Z,0.68
2019-03-18T23:07:30.079Z,0.74
2019-03-18T23:10:37.814Z,0.82
2019-03-18T23:13:45.677Z,0.96
2019-03-18T23:16:53.506Z,0.73
2019-03-18T23:20:01.540Z,0.95
2019-03-18T23:23:09.593Z,0.63
2019-03-18T23:26:17.296Z,0.69
2019-03-18T23:29:24.966Z,0.69
2019-03-18T23:32:32.381Z,0.64
2019-03-18T23:35:40.583Z,0.71
2019-03-18T23:38:48.229Z,0.65
2019-03-18T23:41:56.348Z,0.73
2019-03-18T23:45:05.122Z,0.60
2019-03-18T23:48:12.674Z,0.51
2019-03-18T23:51:20.116Z,0.60
2019-03-18T23:54:27.801Z,0.91
2019-03-18T23:57:35.431Z,0.91
